sensor_id;sensor_type;location;lat;lon;timestamp;temperature;humidity
33207;DHT22;19565;46.602;11.534;2022-12-29T00:01:08;4.70;99.90
33207;DHT22;19565;46.602;11.534;2022-12-29T00:03:36;4.70;99.90
33207;DHT22;19565;46.602;11.534;2022-12-29T00:06:05;4.70;99.90
33207;DHT22;19565;46.602;11.534;2022-12-29T00:08:33;4.80;99.90
33207;DHT22;19565;46.602;11.534;2022-12-29T00:11:11;4.70;99.90
33207;DHT22;19565;46.602;11.534;2022-12-29T00:13:40;4.70;99.90
33207;DHT22;19565;46.602;11.534;2022-12-29T00:16:27;4.70;99.90
33207;DHT22;19565;46.602;11.534;2022-12-29T00:18:55;4.70;99.90
33207;DHT22;19565;46.602;11.534;2022-12-29T00:21:25;4.70;99.90
33207;DHT22;19565;46.602;11.534;2022-12-29T00:24:14;4.70;99.90
33207;DHT22;19565;46.602;11.534;2022-12-29T00:27:10;4.70;99.90
33207;DHT22;19565;46.602;11.534;2022-12-29T00:29:57;4.70;99.90
33207;DHT22;19565;46.602;11.534;2022-12-29T00:32:43;4.70;99.90
33207;DHT22;19565;46.602;11.534;2022-12-29T00:35:30;4.70;99.90
33207;DHT22;19565;46.602;11.534;2022-12-29T00:38:03;4.70;99.90
33207;DHT22;19565;46.602;11.534;2022-12-29T00:40:50;4.70;99.90
33207;DHT22;19565;46.602;11.534;2022-12-29T00:43:36;4.70;99.90
33207;DHT22;19565;46.602;11.534;2022-12-29T00:46:22;4.70;99.90
33207;DHT22;19565;46.602;11.534;2022-12-29T00:48:50;4.60;99.90
33207;DHT22;19565;46.602;11.534;2022-12-29T00:51:35;4.70;99.90
33207;DHT22;19565;46.602;11.534;2022-12-29T00:54:04;4.70;99.90
33207;DHT22;19565;46.602;11.534;2022-12-29T00:56:32;4.70;99.90
33207;DHT22;19565;46.602;11.534;2022-12-29T00:59:01;4.70;99.90
33207;DHT22;19565;46.602;11.534;2022-12-29T01:01:29;4.70;99.90
33207;DHT22;19565;46.602;11.534;2022-12-29T01:03:57;4.70;99.90
33207;DHT22;19565;46.602;11.534;2022-12-29T01:06:29;4.70;99.90
33207;DHT22;19565;46.602;11.534;2022-12-29T01:08:58;4.70;99.90
33207;DHT22;19565;46.602;11.534;2022-12-29T01:11:45;4.70;99.90
33207;DHT22;19565;46.602;11.534;2022-12-29T01:14:13;4.70;99.90
33207;DHT22;19565;46.602;11.534;2022-12-29T01:16:43;4.70;99.90
33207;DHT22;19565;46.602;11.534;2022-12-29T01:19:12;4.70;99.90
33207;DHT22;19565;46.602;11.534;2022-12-29T01:21:40;4.80;99.90
33207;DHT22;19565;46.602;11.534;2022-12-29T01:24:08;4.80;99.90
33207;DHT22;19565;46.602;11.534;2022-12-29T01:26:36;4.80;99.90
33207;DHT22;19565;46.602;11.534;2022-12-29T01:29:06;4.70;99.90
33207;DHT22;19565;46.602;11.534;2022-12-29T01:31:34;4.70;99.90
33207;DHT22;19565;46.602;11.534;2022-12-29T01:34:02;4.80;99.90
33207;DHT22;19565;46.602;11.534;2022-12-29T01:36:30;4.80;99.90
33207;DHT22;19565;46.602;11.534;2022-12-29T01:38:58;4.70;99.90
33207;DHT22;19565;46.602;11.534;2022-12-29T01:41:27;4.80;99.90
33207;DHT22;19565;46.602;11.534;2022-12-29T01:43:57;4.80;99.90
33207;DHT22;19565;46.602;11.534;2022-12-29T01:46:30;4.80;99.90
33207;DHT22;19565;46.602;11.534;2022-12-29T01:49:08;4.80;99.90
33207;DHT22;19565;46.602;11.534;2022-12-29T01:51:40;4.80;99.90
33207;DHT22;19565;46.602;11.534;2022-12-29T01:54:10;4.80;99.90
33207;DHT22;19565;46.602;11.534;2022-12-29T01:56:40;4.80;99.90
33207;DHT22;19565;46.602;11.534;2022-12-29T01:59:11;4.80;99.90
33207;DHT22;19565;46.602;11.534;2022-12-29T02:01:42;4.70;99.90
33207;DHT22;19565;46.602;11.534;2022-12-29T02:04:11;4.70;99.90
33207;DHT22;19565;46.602;11.534;2022-12-29T02:06:43;4.70;99.90
33207;DHT22;19565;46.602;11.534;2022-12-29T02:09:14;4.70;99.90
33207;DHT22;19565;46.602;11.534;2022-12-29T02:11:44;4.70;99.90
33207;DHT22;19565;46.602;11.534;2022-12-29T02:14:13;4.70;99.90
33207;DHT22;19565;46.602;11.534;2022-12-29T02:16:54;4.70;99.90
33207;DHT22;19565;46.602;11.534;2022-12-29T02:19:52;4.70;99.90
33207;DHT22;19565;46.602;11.534;2022-12-29T02:22:27;4.70;99.90
33207;DHT22;19565;46.602;11.534;2022-12-29T02:25:28;4.70;99.90
33207;DHT22;19565;46.602;11.534;2022-12-29T02:28:22;4.70;99.90
33207;DHT22;19565;46.602;11.534;2022-12-29T02:31:00;4.70;99.90
33207;DHT22;19565;46.602;11.534;2022-12-29T02:33:42;4.70;99.90
33207;DHT22;19565;46.602;11.534;2022-12-29T02:36:17;4.70;99.90
33207;DHT22;19565;46.602;11.534;2022-12-29T02:38:56;4.70;99.90
33207;DHT22;19565;46.602;11.534;2022-12-29T02:41:32;4.70;99.90
33207;DHT22;19565;46.602;11.534;2022-12-29T02:44:05;4.80;99.90
33207;DHT22;19565;46.602;11.534;2022-12-29T02:46:43;4.80;99.90
33207;DHT22;19565;46.602;11.534;2022-12-29T02:49:15;4.80;99.90
33207;DHT22;19565;46.602;11.534;2022-12-29T02:51:54;4.80;99.90
33207;DHT22;19565;46.602;11.534;2022-12-29T02:54:24;4.80;99.90
33207;DHT22;19565;46.602;11.534;2022-12-29T02:57:15;4.80;99.90
33207;DHT22;19565;46.602;11.534;2022-12-29T02:59:58;4.80;99.90
33207;DHT22;19565;46.602;11.534;2022-12-29T03:02:46;4.80;99.90
33207;DHT22;19565;46.602;11.534;2022-12-29T03:05:31;4.80;99.90
33207;DHT22;19565;46.602;11.534;2022-12-29T03:08:05;4.70;99.90
33207;DHT22;19565;46.602;11.534;2022-12-29T03:10:41;4.70;99.90
33207;DHT22;19565;46.602;11.534;2022-12-29T03:13:18;4.70;99.90
33207;DHT22;19565;46.602;11.534;2022-12-29T03:16:12;4.70;99.90
33207;DHT22;19565;46.602;11.534;2022-12-29T03:18:51;4.70;99.90
33207;DHT22;19565;46.602;11.534;2022-12-29T03:21:26;4.70;99.90
33207;DHT22;19565;46.602;11.534;2022-12-29T03:24:11;4.70;99.90
33207;DHT22;19565;46.602;11.534;2022-12-29T03:26:41;4.70;99.90
33207;DHT22;19565;46.602;11.534;2022-12-29T03:29:12;4.70;99.90
33207;DHT22;19565;46.602;11.534;2022-12-29T03:31:42;4.70;99.90
33207;DHT22;19565;46.602;11.534;2022-12-29T03:34:13;4.60;99.90
33207;DHT22;19565;46.602;11.534;2022-12-29T03:36:48;4.50;99.90
33207;DHT22;19565;46.602;11.534;2022-12-29T03:39:18;4.60;99.90
33207;DHT22;19565;46.602;11.534;2022-12-29T03:41:50;4.50;99.90
33207;DHT22;19565;46.602;11.534;2022-12-29T03:44:31;4.60;99.90
33207;DHT22;19565;46.602;11.534;2022-12-29T03:46:59;4.60;99.90
33207;DHT22;19565;46.602;11.534;2022-12-29T03:49:29;4.70;99.90
33207;DHT22;19565;46.602;11.534;2022-12-29T03:51:57;4.70;99.90
33207;DHT22;19565;46.602;11.534;2022-12-29T03:54:25;4.70;99.90
33207;DHT22;19565;46.602;11.534;2022-12-29T03:56:53;4.70;99.90
33207;DHT22;19565;46.602;11.534;2022-12-29T03:59:22;4.60;99.90
33207;DHT22;19565;46.602;11.534;2022-12-29T04:01:50;4.60;99.90
33207;DHT22;19565;46.602;11.534;2022-12-29T04:04:18;4.50;99.90
33207;DHT22;19565;46.602;11.534;2022-12-29T04:06:47;4.50;99.90
33207;DHT22;19565;46.602;11.534;2022-12-29T04:09:15;4.60;99.90
33207;DHT22;19565;46.602;11.534;2022-12-29T04:11:43;4.60;99.90
33207;DHT22;19565;46.602;11.534;2022-12-29T04:14:12;4.60;99.90
33207;DHT22;19565;46.602;11.534;2022-12-29T04:16:40;4.60;99.90
33207;DHT22;19565;46.602;11.534;2022-12-29T04:19:08;4.60;99.90
33207;DHT22;19565;46.602;11.534;2022-12-29T04:21:36;4.60;99.90
33207;DHT22;19565;46.602;11.534;2022-12-29T04:24:06;4.60;99.90
33207;DHT22;19565;46.602;11.534;2022-12-29T04:26:34;4.60;99.90
33207;DHT22;19565;46.602;11.534;2022-12-29T04:29:02;4.60;99.90
33207;DHT22;19565;46.602;11.534;2022-12-29T04:31:30;4.60;99.90
33207;DHT22;19565;46.602;11.534;2022-12-29T04:33:58;4.60;99.90
33207;DHT22;19565;46.602;11.534;2022-12-29T04:36:26;4.60;99.90
33207;DHT22;19565;46.602;11.534;2022-12-29T04:38:57;4.60;99.90
33207;DHT22;19565;46.602;11.534;2022-12-29T04:41:27;4.60;99.90
33207;DHT22;19565;46.602;11.534;2022-12-29T04:43:55;4.50;99.90
33207;DHT22;19565;46.602;11.534;2022-12-29T04:46:23;4.50;99.90
33207;DHT22;19565;46.602;11.534;2022-12-29T04:48:51;4.60;99.90
33207;DHT22;19565;46.602;11.534;2022-12-29T04:51:19;4.60;99.90
33207;DHT22;19565;46.602;11.534;2022-12-29T04:53:47;4.70;99.90
33207;DHT22;19565;46.602;11.534;2022-12-29T04:56:15;4.60;99.90
33207;DHT22;19565;46.602;11.534;2022-12-29T04:58:45;4.70;99.90
33207;DHT22;19565;46.602;11.534;2022-12-29T05:01:13;4.70;99.90
33207;DHT22;19565;46.602;11.534;2022-12-29T05:03:41;4.70;99.90
33207;DHT22;19565;46.602;11.534;2022-12-29T05:06:09;4.80;99.90
33207;DHT22;19565;46.602;11.534;2022-12-29T05:08:37;4.70;99.90
33207;DHT22;19565;46.602;11.534;2022-12-29T05:11:05;4.70;99.90
33207;DHT22;19565;46.602;11.534;2022-12-29T05:13:33;4.40;99.90
33207;DHT22;19565;46.602;11.534;2022-12-29T05:16:03;4.30;99.90
33207;DHT22;19565;46.602;11.534;2022-12-29T05:18:31;4.40;99.90
33207;DHT22;19565;46.602;11.534;2022-12-29T05:20:59;4.40;99.90
33207;DHT22;19565;46.602;11.534;2022-12-29T05:23:27;4.30;99.90
33207;DHT22;19565;46.602;11.534;2022-12-29T05:25:55;4.10;99.90
33207;DHT22;19565;46.602;11.534;2022-12-29T05:28:23;4.20;99.90
33207;DHT22;19565;46.602;11.534;2022-12-29T05:30:51;4.10;99.90
33207;DHT22;19565;46.602;11.534;2022-12-29T05:33:20;4.00;99.90
33207;DHT22;19565;46.602;11.534;2022-12-29T05:35:49;4.20;99.90
33207;DHT22;19565;46.602;11.534;2022-12-29T05:38:17;4.20;99.90
33207;DHT22;19565;46.602;11.534;2022-12-29T05:40:45;4.20;99.90
33207;DHT22;19565;46.602;11.534;2022-12-29T05:43:13;4.30;99.90
33207;DHT22;19565;46.602;11.534;2022-12-29T05:45:41;4.20;99.90
33207;DHT22;19565;46.602;11.534;2022-12-29T05:48:09;4.20;99.90
33207;DHT22;19565;46.602;11.534;2022-12-29T05:50:38;4.30;99.90
33207;DHT22;19565;46.602;11.534;2022-12-29T05:53:06;4.40;99.90
33207;DHT22;19565;46.602;11.534;2022-12-29T05:55:34;4.50;99.90
33207;DHT22;19565;46.602;11.534;2022-12-29T05:58:02;4.50;99.90
33207;DHT22;19565;46.602;11.534;2022-12-29T06:00:31;4.50;99.90
33207;DHT22;19565;46.602;11.534;2022-12-29T06:02:59;4.50;99.90
33207;DHT22;19565;46.602;11.534;2022-12-29T06:05:27;4.50;99.90
33207;DHT22;19565;46.602;11.534;2022-12-29T06:07:56;4.50;99.90
33207;DHT22;19565;46.602;11.534;2022-12-29T06:10:25;4.50;99.90
33207;DHT22;19565;46.602;11.534;2022-12-29T06:12:54;4.50;99.90
33207;DHT22;19565;46.602;11.534;2022-12-29T06:15:22;4.50;99.90
33207;DHT22;19565;46.602;11.534;2022-12-29T06:17:50;4.40;99.90
33207;DHT22;19565;46.602;11.534;2022-12-29T06:20:18;4.40;99.90
33207;DHT22;19565;46.602;11.534;2022-12-29T06:22:46;4.40;99.90
33207;DHT22;19565;46.602;11.534;2022-12-29T06:25:16;4.40;99.90
33207;DHT22;19565;46.602;11.534;2022-12-29T06:27:46;4.30;99.90
33207;DHT22;19565;46.602;11.534;2022-12-29T06:30:14;4.30;99.90
33207;DHT22;19565;46.602;11.534;2022-12-29T06:32:44;4.30;99.90
33207;DHT22;19565;46.602;11.534;2022-12-29T06:35:12;4.30;99.90
33207;DHT22;19565;46.602;11.534;2022-12-29T06:37:40;4.30;99.90
33207;DHT22;19565;46.602;11.534;2022-12-29T06:40:09;4.20;99.90
33207;DHT22;19565;46.602;11.534;2022-12-29T06:42:39;4.20;99.90
33207;DHT22;19565;46.602;11.534;2022-12-29T06:45:08;4.10;99.90
33207;DHT22;19565;46.602;11.534;2022-12-29T06:47:36;4.10;99.90
33207;DHT22;19565;46.602;11.534;2022-12-29T06:50:05;4.10;99.90
33207;DHT22;19565;46.602;11.534;2022-12-29T06:52:33;4.10;99.90
33207;DHT22;19565;46.602;11.534;2022-12-29T06:55:01;4.00;99.90
33207;DHT22;19565;46.602;11.534;2022-12-29T06:57:29;4.00;99.90
33207;DHT22;19565;46.602;11.534;2022-12-29T06:59:59;4.00;99.90
33207;DHT22;19565;46.602;11.534;2022-12-29T07:02:27;4.00;99.90
33207;DHT22;19565;46.602;11.534;2022-12-29T07:04:55;3.90;99.90
33207;DHT22;19565;46.602;11.534;2022-12-29T07:07:23;3.90;99.90
33207;DHT22;19565;46.602;11.534;2022-12-29T07:09:51;3.90;99.90
33207;DHT22;19565;46.602;11.534;2022-12-29T07:12:24;3.90;99.90
33207;DHT22;19565;46.602;11.534;2022-12-29T07:14:54;3.90;99.90
33207;DHT22;19565;46.602;11.534;2022-12-29T07:17:23;3.90;99.90
33207;DHT22;19565;46.602;11.534;2022-12-29T07:19:52;4.00;99.90
33207;DHT22;19565;46.602;11.534;2022-12-29T07:22:20;4.00;99.90
33207;DHT22;19565;46.602;11.534;2022-12-29T07:24:50;4.00;99.90
33207;DHT22;19565;46.602;11.534;2022-12-29T07:27:19;4.00;99.90
33207;DHT22;19565;46.602;11.534;2022-12-29T07:29:47;4.00;99.90
33207;DHT22;19565;46.602;11.534;2022-12-29T07:32:15;4.00;99.90
33207;DHT22;19565;46.602;11.534;2022-12-29T07:34:44;3.90;99.90
33207;DHT22;19565;46.602;11.534;2022-12-29T07:37:14;3.90;99.90
33207;DHT22;19565;46.602;11.534;2022-12-29T07:39:43;4.00;99.90
33207;DHT22;19565;46.602;11.534;2022-12-29T07:42:11;3.90;99.90
33207;DHT22;19565;46.602;11.534;2022-12-29T07:44:39;4.00;99.90
33207;DHT22;19565;46.602;11.534;2022-12-29T07:47:07;4.00;99.90
33207;DHT22;19565;46.602;11.534;2022-12-29T07:49:36;4.00;99.90
33207;DHT22;19565;46.602;11.534;2022-12-29T07:52:05;4.10;99.90
33207;DHT22;19565;46.602;11.534;2022-12-29T07:54:33;4.10;99.90
33207;DHT22;19565;46.602;11.534;2022-12-29T07:57:01;4.10;99.90
33207;DHT22;19565;46.602;11.534;2022-12-29T07:59:29;4.20;99.90
33207;DHT22;19565;46.602;11.534;2022-12-29T08:01:57;4.10;99.90
33207;DHT22;19565;46.602;11.534;2022-12-29T08:04:25;4.10;99.90
33207;DHT22;19565;46.602;11.534;2022-12-29T08:06:53;4.10;99.90
33207;DHT22;19565;46.602;11.534;2022-12-29T08:09:23;4.10;99.90
33207;DHT22;19565;46.602;11.534;2022-12-29T08:11:51;4.10;99.90
33207;DHT22;19565;46.602;11.534;2022-12-29T08:14:19;4.10;99.90
33207;DHT22;19565;46.602;11.534;2022-12-29T08:16:47;4.10;99.90
33207;DHT22;19565;46.602;11.534;2022-12-29T08:19:15;4.10;99.90
33207;DHT22;19565;46.602;11.534;2022-12-29T08:21:43;4.10;99.90
33207;DHT22;19565;46.602;11.534;2022-12-29T08:24:11;4.10;99.90
33207;DHT22;19565;46.602;11.534;2022-12-29T08:26:40;4.10;99.90
33207;DHT22;19565;46.602;11.534;2022-12-29T08:29:09;4.10;99.90
33207;DHT22;19565;46.602;11.534;2022-12-29T08:31:37;4.10;99.90
33207;DHT22;19565;46.602;11.534;2022-12-29T08:34:08;4.10;99.90
33207;DHT22;19565;46.602;11.534;2022-12-29T08:36:37;4.10;99.90
33207;DHT22;19565;46.602;11.534;2022-12-29T08:39:07;4.10;99.90
33207;DHT22;19565;46.602;11.534;2022-12-29T08:41:36;4.00;99.90
33207;DHT22;19565;46.602;11.534;2022-12-29T08:44:05;4.10;99.90
33207;DHT22;19565;46.602;11.534;2022-12-29T08:46:34;4.20;99.90
33207;DHT22;19565;46.602;11.534;2022-12-29T08:49:02;4.20;99.90
33207;DHT22;19565;46.602;11.534;2022-12-29T08:51:30;4.30;99.90
33207;DHT22;19565;46.602;11.534;2022-12-29T08:53:58;4.30;99.90
33207;DHT22;19565;46.602;11.534;2022-12-29T08:56:27;4.30;99.90
33207;DHT22;19565;46.602;11.534;2022-12-29T08:58:55;4.10;99.90
33207;DHT22;19565;46.602;11.534;2022-12-29T09:01:25;3.90;99.90
33207;DHT22;19565;46.602;11.534;2022-12-29T09:03:53;3.80;99.90
33207;DHT22;19565;46.602;11.534;2022-12-29T09:06:41;3.70;99.90
33207;DHT22;19565;46.602;11.534;2022-12-29T09:09:12;3.80;99.90
33207;DHT22;19565;46.602;11.534;2022-12-29T09:11:41;3.90;99.90
33207;DHT22;19565;46.602;11.534;2022-12-29T09:14:09;3.90;99.90
33207;DHT22;19565;46.602;11.534;2022-12-29T09:16:40;4.00;99.90
33207;DHT22;19565;46.602;11.534;2022-12-29T09:19:25;4.10;99.90
33207;DHT22;19565;46.602;11.534;2022-12-29T09:21:53;4.20;99.90
33207;DHT22;19565;46.602;11.534;2022-12-29T09:24:21;4.30;99.90
33207;DHT22;19565;46.602;11.534;2022-12-29T09:26:49;4.40;99.90
33207;DHT22;19565;46.602;11.534;2022-12-29T09:29:18;4.50;99.90
33207;DHT22;19565;46.602;11.534;2022-12-29T09:31:47;4.50;99.90
33207;DHT22;19565;46.602;11.534;2022-12-29T09:34:15;4.60;99.90
33207;DHT22;19565;46.602;11.534;2022-12-29T09:36:43;4.70;99.90
33207;DHT22;19565;46.602;11.534;2022-12-29T09:39:12;4.70;99.90
33207;DHT22;19565;46.602;11.534;2022-12-29T09:41:45;4.70;99.90
33207;DHT22;19565;46.602;11.534;2022-12-29T09:44:19;4.70;99.90
33207;DHT22;19565;46.602;11.534;2022-12-29T09:46:50;4.70;99.90
33207;DHT22;19565;46.602;11.534;2022-12-29T09:49:25;4.80;99.90
33207;DHT22;19565;46.602;11.534;2022-12-29T09:51:57;4.70;99.90
33207;DHT22;19565;46.602;11.534;2022-12-29T09:54:37;4.80;99.90
33207;DHT22;19565;46.602;11.534;2022-12-29T09:57:15;4.80;99.90
33207;DHT22;19565;46.602;11.534;2022-12-29T09:59:45;4.80;99.90
33207;DHT22;19565;46.602;11.534;2022-12-29T10:02:32;4.80;99.90
33207;DHT22;19565;46.602;11.534;2022-12-29T10:05:13;4.90;99.90
33207;DHT22;19565;46.602;11.534;2022-12-29T10:07:52;4.90;99.90
33207;DHT22;19565;46.602;11.534;2022-12-29T10:10:31;5.00;99.90
33207;DHT22;19565;46.602;11.534;2022-12-29T10:13:15;4.90;99.90
33207;DHT22;19565;46.602;11.534;2022-12-29T10:15:57;5.00;99.90
33207;DHT22;19565;46.602;11.534;2022-12-29T10:18:49;5.10;99.90
33207;DHT22;19565;46.602;11.534;2022-12-29T10:21:29;5.10;99.90
33207;DHT22;19565;46.602;11.534;2022-12-29T10:24:04;5.10;99.90
33207;DHT22;19565;46.602;11.534;2022-12-29T10:26:38;5.20;99.90
33207;DHT22;19565;46.602;11.534;2022-12-29T10:29:13;5.20;99.90
33207;DHT22;19565;46.602;11.534;2022-12-29T10:31:45;5.20;99.90
33207;DHT22;19565;46.602;11.534;2022-12-29T10:34:20;5.30;99.90
33207;DHT22;19565;46.602;11.534;2022-12-29T10:36:50;5.30;99.90
33207;DHT22;19565;46.602;11.534;2022-12-29T10:39:23;5.40;99.90
33207;DHT22;19565;46.602;11.534;2022-12-29T10:41:59;5.40;99.90
33207;DHT22;19565;46.602;11.534;2022-12-29T10:44:31;5.50;99.90
33207;DHT22;19565;46.602;11.534;2022-12-29T10:47:04;5.60;99.90
33207;DHT22;19565;46.602;11.534;2022-12-29T10:49:38;5.60;99.90
33207;DHT22;19565;46.602;11.534;2022-12-29T10:52:09;5.60;99.90
33207;DHT22;19565;46.602;11.534;2022-12-29T10:54:44;5.60;99.90
33207;DHT22;19565;46.602;11.534;2022-12-29T10:57:18;5.70;99.90
33207;DHT22;19565;46.602;11.534;2022-12-29T10:59:48;5.70;99.90
33207;DHT22;19565;46.602;11.534;2022-12-29T11:02:46;5.70;99.90
33207;DHT22;19565;46.602;11.534;2022-12-29T11:05:23;5.80;99.90
33207;DHT22;19565;46.602;11.534;2022-12-29T11:07:59;5.80;99.90
33207;DHT22;19565;46.602;11.534;2022-12-29T11:10:36;5.90;99.90
33207;DHT22;19565;46.602;11.534;2022-12-29T11:13:13;5.90;99.90
33207;DHT22;19565;46.602;11.534;2022-12-29T11:15:43;5.90;99.90
33207;DHT22;19565;46.602;11.534;2022-12-29T11:18:20;5.90;99.90
33207;DHT22;19565;46.602;11.534;2022-12-29T11:20:51;5.90;99.90
33207;DHT22;19565;46.602;11.534;2022-12-29T11:23:26;6.00;99.90
33207;DHT22;19565;46.602;11.534;2022-12-29T11:26:17;5.90;99.90
33207;DHT22;19565;46.602;11.534;2022-12-29T11:28:46;5.90;99.90
33207;DHT22;19565;46.602;11.534;2022-12-29T11:31:16;6.00;99.90
33207;DHT22;19565;46.602;11.534;2022-12-29T11:33:47;6.00;99.90
33207;DHT22;19565;46.602;11.534;2022-12-29T11:36:19;6.00;99.90
33207;DHT22;19565;46.602;11.534;2022-12-29T11:38:49;6.00;99.90
33207;DHT22;19565;46.602;11.534;2022-12-29T11:41:23;6.00;99.90
33207;DHT22;19565;46.602;11.534;2022-12-29T11:43:52;6.10;99.90
33207;DHT22;19565;46.602;11.534;2022-12-29T11:46:25;6.10;99.90
33207;DHT22;19565;46.602;11.534;2022-12-29T11:48:56;6.10;99.90
33207;DHT22;19565;46.602;11.534;2022-12-29T11:51:31;6.10;99.90
33207;DHT22;19565;46.602;11.534;2022-12-29T11:54:03;6.20;99.90
33207;DHT22;19565;46.602;11.534;2022-12-29T11:56:34;6.20;99.90
33207;DHT22;19565;46.602;11.534;2022-12-29T11:59:40;6.20;99.90
33207;DHT22;19565;46.602;11.534;2022-12-29T12:02:25;6.30;99.90
33207;DHT22;19565;46.602;11.534;2022-12-29T12:05:01;6.20;99.90
33207;DHT22;19565;46.602;11.534;2022-12-29T12:07:39;6.30;99.90
33207;DHT22;19565;46.602;11.534;2022-12-29T12:10:24;6.30;99.90
33207;DHT22;19565;46.602;11.534;2022-12-29T12:12:59;6.30;99.90
33207;DHT22;19565;46.602;11.534;2022-12-29T12:15:35;6.30;99.90
33207;DHT22;19565;46.602;11.534;2022-12-29T12:18:16;6.40;99.90
33207;DHT22;19565;46.602;11.534;2022-12-29T12:20:48;6.40;99.90
33207;DHT22;19565;46.602;11.534;2022-12-29T12:23:27;6.40;99.90
33207;DHT22;19565;46.602;11.534;2022-12-29T12:26:04;6.40;99.90
33207;DHT22;19565;46.602;11.534;2022-12-29T12:28:42;6.50;99.90
33207;DHT22;19565;46.602;11.534;2022-12-29T12:31:19;6.50;99.90
33207;DHT22;19565;46.602;11.534;2022-12-29T12:33:55;6.40;99.90
33207;DHT22;19565;46.602;11.534;2022-12-29T12:36:47;6.40;99.90
33207;DHT22;19565;46.602;11.534;2022-12-29T12:39:25;6.50;99.90
33207;DHT22;19565;46.602;11.534;2022-12-29T12:42:03;6.50;99.90
33207;DHT22;19565;46.602;11.534;2022-12-29T12:44:40;6.60;99.90
33207;DHT22;19565;46.602;11.534;2022-12-29T12:47:46;6.60;99.90
33207;DHT22;19565;46.602;11.534;2022-12-29T12:50:41;6.70;99.90
33207;DHT22;19565;46.602;11.534;2022-12-29T12:53:29;6.70;99.90
33207;DHT22;19565;46.602;11.534;2022-12-29T12:56:13;6.70;99.90
33207;DHT22;19565;46.602;11.534;2022-12-29T12:58:51;6.70;99.90
33207;DHT22;19565;46.602;11.534;2022-12-29T13:01:33;6.70;99.90
33207;DHT22;19565;46.602;11.534;2022-12-29T13:04:32;6.70;99.90
33207;DHT22;19565;46.602;11.534;2022-12-29T13:07:13;6.70;99.90
33207;DHT22;19565;46.602;11.534;2022-12-29T13:09:55;6.70;99.90
33207;DHT22;19565;46.602;11.534;2022-12-29T13:12:35;6.70;99.90
33207;DHT22;19565;46.602;11.534;2022-12-29T13:15:17;6.70;99.90
33207;DHT22;19565;46.602;11.534;2022-12-29T13:17:55;6.70;99.90
33207;DHT22;19565;46.602;11.534;2022-12-29T13:20:32;6.80;99.90
33207;DHT22;19565;46.602;11.534;2022-12-29T13:23:07;6.80;99.90
33207;DHT22;19565;46.602;11.534;2022-12-29T13:25:42;6.90;99.90
33207;DHT22;19565;46.602;11.534;2022-12-29T13:28:20;6.90;99.90
33207;DHT22;19565;46.602;11.534;2022-12-29T13:30:56;6.90;99.90
33207;DHT22;19565;46.602;11.534;2022-12-29T13:33:34;6.90;99.90
33207;DHT22;19565;46.602;11.534;2022-12-29T13:36:10;6.90;99.90
33207;DHT22;19565;46.602;11.534;2022-12-29T13:38:43;6.80;99.90
33207;DHT22;19565;46.602;11.534;2022-12-29T13:41:17;6.80;99.90
33207;DHT22;19565;46.602;11.534;2022-12-29T13:43:47;6.80;99.90
33207;DHT22;19565;46.602;11.534;2022-12-29T13:46:21;6.80;99.90
33207;DHT22;19565;46.602;11.534;2022-12-29T13:48:54;6.90;99.90
33207;DHT22;19565;46.602;11.534;2022-12-29T13:51:24;6.80;99.90
33207;DHT22;19565;46.602;11.534;2022-12-29T13:54:11;6.80;99.90
33207;DHT22;19565;46.602;11.534;2022-12-29T13:56:47;6.80;99.90
33207;DHT22;19565;46.602;11.534;2022-12-29T13:59:23;6.90;99.90
33207;DHT22;19565;46.602;11.534;2022-12-29T14:01:57;6.90;99.90
33207;DHT22;19565;46.602;11.534;2022-12-29T14:04:28;6.90;99.90
33207;DHT22;19565;46.602;11.534;2022-12-29T14:07:02;6.90;99.90
33207;DHT22;19565;46.602;11.534;2022-12-29T14:09:51;6.90;99.90
33207;DHT22;19565;46.602;11.534;2022-12-29T14:12:28;7.00;99.90
33207;DHT22;19565;46.602;11.534;2022-12-29T14:15:05;7.00;99.90
33207;DHT22;19565;46.602;11.534;2022-12-29T14:17:34;7.00;99.90
33207;DHT22;19565;46.602;11.534;2022-12-29T14:20:03;7.10;99.90
33207;DHT22;19565;46.602;11.534;2022-12-29T14:22:31;7.10;99.90
33207;DHT22;19565;46.602;11.534;2022-12-29T14:25:01;7.10;99.90
33207;DHT22;19565;46.602;11.534;2022-12-29T14:27:52;7.10;99.90
33207;DHT22;19565;46.602;11.534;2022-12-29T14:30:47;7.00;99.90
33207;DHT22;19565;46.602;11.534;2022-12-29T14:33:17;7.00;99.90
33207;DHT22;19565;46.602;11.534;2022-12-29T14:35:47;7.00;99.90
33207;DHT22;19565;46.602;11.534;2022-12-29T14:38:22;7.00;99.90
33207;DHT22;19565;46.602;11.534;2022-12-29T14:40:51;7.00;99.90
33207;DHT22;19565;46.602;11.534;2022-12-29T14:43:24;7.00;99.90
33207;DHT22;19565;46.602;11.534;2022-12-29T14:45:57;6.90;99.90
33207;DHT22;19565;46.602;11.534;2022-12-29T14:48:36;6.90;99.90
33207;DHT22;19565;46.602;11.534;2022-12-29T14:51:19;6.90;99.90
33207;DHT22;19565;46.602;11.534;2022-12-29T14:53:49;6.90;99.90
33207;DHT22;19565;46.602;11.534;2022-12-29T14:56:20;6.90;99.90
33207;DHT22;19565;46.602;11.534;2022-12-29T14:58:53;6.90;99.90
33207;DHT22;19565;46.602;11.534;2022-12-29T15:01:36;6.80;99.90
33207;DHT22;19565;46.602;11.534;2022-12-29T15:04:15;6.80;99.90
33207;DHT22;19565;46.602;11.534;2022-12-29T15:06:46;6.90;99.90
33207;DHT22;19565;46.602;11.534;2022-12-29T15:09:24;6.90;99.90
33207;DHT22;19565;46.602;11.534;2022-12-29T15:11:59;6.90;99.90
33207;DHT22;19565;46.602;11.534;2022-12-29T15:14:31;6.90;99.90
33207;DHT22;19565;46.602;11.534;2022-12-29T15:17:08;6.90;99.90
33207;DHT22;19565;46.602;11.534;2022-12-29T15:19:37;6.80;99.90
33207;DHT22;19565;46.602;11.534;2022-12-29T15:22:05;6.80;99.90
33207;DHT22;19565;46.602;11.534;2022-12-29T15:24:34;6.80;99.90
33207;DHT22;19565;46.602;11.534;2022-12-29T15:27:13;6.80;99.90
33207;DHT22;19565;46.602;11.534;2022-12-29T15:29:43;6.80;99.90
33207;DHT22;19565;46.602;11.534;2022-12-29T15:32:19;6.70;99.90
33207;DHT22;19565;46.602;11.534;2022-12-29T15:34:49;6.70;99.90
33207;DHT22;19565;46.602;11.534;2022-12-29T15:37:22;6.40;99.90
33207;DHT22;19565;46.602;11.534;2022-12-29T15:39:52;6.40;99.90
33207;DHT22;19565;46.602;11.534;2022-12-29T15:42:44;6.40;99.90
33207;DHT22;19565;46.602;11.534;2022-12-29T15:45:14;6.40;99.90
33207;DHT22;19565;46.602;11.534;2022-12-29T15:47:45;6.40;99.90
33207;DHT22;19565;46.602;11.534;2022-12-29T15:50:21;6.40;99.90
33207;DHT22;19565;46.602;11.534;2022-12-29T15:52:50;6.30;99.90
33207;DHT22;19565;46.602;11.534;2022-12-29T15:55:21;6.30;99.90
33207;DHT22;19565;46.602;11.534;2022-12-29T15:57:56;6.30;99.90
33207;DHT22;19565;46.602;11.534;2022-12-29T16:00:27;6.30;99.90
33207;DHT22;19565;46.602;11.534;2022-12-29T16:03:00;6.20;99.90
33207;DHT22;19565;46.602;11.534;2022-12-29T16:05:33;6.20;99.90
33207;DHT22;19565;46.602;11.534;2022-12-29T16:08:02;6.10;99.90